• Join FlightAware (Why Join?)
  • Login
  • US Flag 
07:27AM EST


 

Airport Tracker/Info


-or-


 

Live Flight TrackerFlight Track Log ✈ AVN50 ✈ 08-Jan-2014 ✈ NVVV / VLI - NZAA / AKL

Flight Track Log - Related Links

Times and Time Zones

All times are in EST time to prevent confusion due to time zone crossing. See the AVN50 flight status page for this flight to view local times or setup timezone preferences in your user account.

Time Position Orientation Groundspeed Altitude Reporting Facility
EST Latitude Longitude Course Direction KTS MPH feet Rate Location/Type
03:08PM -18.0309 168.4097 166° South  Level FlightAware Approximate
03:09PM -18.1414 168.4397 166° South  Level FlightAware Approximate
03:10PM -18.2519 168.4698 166° South  Level FlightAware Approximate
03:11PM -18.3624 168.4999 165° South  Level FlightAware Approximate
03:12PM -18.4729 168.5301 165° South  Level FlightAware Approximate
03:13PM -18.5834 168.5603 165° South  Level FlightAware Approximate
03:14PM -18.6939 168.5905 165° South  Level FlightAware Approximate
03:15PM -18.8044 168.6207 165° South  Level FlightAware Approximate
03:16PM -18.9149 168.6511 165° South  Level FlightAware Approximate
03:17PM -19.0254 168.6814 165° South  Level FlightAware Approximate
03:18PM -19.1359 168.7118 165° South  Level FlightAware Approximate
03:19PM -19.2463 168.7422 165° South  Level FlightAware Approximate
03:20PM -19.3568 168.7727 165° South  Level FlightAware Approximate
03:21PM -19.4672 168.8032 165° South  Level FlightAware Approximate
03:22PM -19.5777 168.8338 165° South  Level FlightAware Approximate
03:23PM -19.6881 168.8644 165° South  Level FlightAware Approximate
03:24PM -19.7986 168.8950 165° South  Level FlightAware Approximate
03:25PM -19.9090 168.9257 165° South  Level FlightAware Approximate
03:26PM -20.0194 168.9564 165° South  Level FlightAware Approximate
03:27PM -20.1299 168.9872 165° South  Level FlightAware Approximate
03:28PM -20.2403 169.0180 165° South  Level FlightAware Approximate
03:29PM -20.3507 169.0488 165° South  Level FlightAware Approximate
03:30PM -20.4611 169.0797 165° South  Level FlightAware Approximate
03:31PM -20.5715 169.1107 165° South  Level FlightAware Approximate
03:32PM -20.6819 169.1417 165° South  Level FlightAware Approximate
03:33PM -20.7923 169.1727 165° South  Level FlightAware Approximate
03:34PM -20.9027 169.2038 165° South  Level FlightAware Approximate
03:35PM -21.0131 169.2349 165° South  Level FlightAware Approximate
03:36PM -21.1235 169.2661 165° South  Level FlightAware Approximate
03:37PM -21.2338 169.2973 165° South  Level FlightAware Approximate
03:38PM -21.3442 169.3285 165° South  Level FlightAware Approximate
03:39PM -21.4545 169.3598 165° South  Level FlightAware Approximate
03:40PM -21.5649 169.3912 165° South  Level FlightAware Approximate
03:41PM -21.6752 169.4226 165° South  Level FlightAware Approximate
03:42PM -21.7856 169.4541 165° South  Level FlightAware Approximate
03:43PM -21.8959 169.4856 165° South  Level FlightAware Approximate
03:44PM -22.0063 169.5171 165° South  Level FlightAware Approximate
03:45PM -22.1166 169.5487 165° South  Level FlightAware Approximate
03:46PM -22.2269 169.5804 165° South  Level FlightAware Approximate
03:47PM -22.3372 169.6121 165° South  Level FlightAware Approximate
03:48PM -22.4475 169.6438 165° South  Level FlightAware Approximate
03:49PM -22.5578 169.6756 165° South  Level FlightAware Approximate
03:50PM -22.6681 169.7075 165° South  Level FlightAware Approximate
03:51PM -22.7784 169.7394 165° South  Level FlightAware Approximate
03:52PM -22.8887 169.7713 165° South  Level FlightAware Approximate
03:53PM -22.9989 169.8033 165° South  Level FlightAware Approximate
03:54PM -23.1092 169.8354 165° South  Level FlightAware Approximate
03:55PM -23.2195 169.8675 165° South  Level FlightAware Approximate
03:56PM -23.3297 169.8997 165° South  Level FlightAware Approximate
03:57PM -23.4400 169.9319 165° South  Level FlightAware Approximate
03:58PM -23.5502 169.9642 165° South  Level FlightAware Approximate
03:59PM -23.6604 169.9965 165° South  Level FlightAware Approximate
04:00PM -23.7707 170.0289 165° South  Level FlightAware Approximate
04:01PM -23.8809 170.0613 165° South  Level FlightAware Approximate
04:02PM -23.9906 170.0960 164° South  Level Estimated
04:03PM -24.1006 170.1292 165° South  Level FlightAware Approximate
04:04PM -24.2106 170.1625 165° South  Level FlightAware Approximate
04:05PM -24.3207 170.1958 165° South  Level FlightAware Approximate
04:06PM -24.4307 170.2292 165° South  Level FlightAware Approximate
04:07PM -24.5407 170.2626 165° South  Level FlightAware Approximate
04:08PM -24.6507 170.2962 165° South  Level FlightAware Approximate
04:09PM -24.7607 170.3297 165° South  Level FlightAware Approximate
04:10PM -24.8707 170.3634 164° South  Level FlightAware Approximate
04:10PM -25.7333 170.6167 164° South 493 567  Level New Zealand
04:11PM -24.9806 170.3970 164° South  Level FlightAware Approximate
04:12PM -25.0906 170.4308 164° South  Level FlightAware Approximate
04:12PM -26.0000 170.7000 164° South 493 567  Level New Zealand
04:14PM -26.2667 170.7833 164° South 494 568  Level New Zealand
04:16PM -26.5333 170.8667 164° South 494 568  Level New Zealand
04:18PM -26.8000 170.9500 164° South 494 568  Level New Zealand
04:20PM -27.0667 171.0333 164° South 494 568  Level New Zealand
04:22PM -27.3333 171.1167 164° South 494 568  Level New Zealand
04:24PM -27.6000 171.2167 162° South 494 568  Level New Zealand
04:26PM -27.8500 171.3000 164° South 494 568  Level New Zealand
04:28PM -28.1167 171.3833 165° South 494 568  Level New Zealand
04:30PM -28.3833 171.4667 165° South 494 568  Level New Zealand
04:32PM -28.6500 171.5500 165° South 494 568  Level New Zealand
04:34PM -28.9167 171.6500 162° South 494 568  Level New Zealand
04:36PM -29.1833 171.7333 165° South 494 568  Level New Zealand
04:38PM -29.4500 171.8167 165° South 494 568  Level New Zealand
04:40PM -29.7000 171.9167 161° South 499 574  Level New Zealand
04:42PM -29.9667 172.0000 165° South 491 565  Level New Zealand
04:44PM -30.2333 172.0833 165° South 491 565  Level New Zealand
04:46PM -30.4833 172.1833 161° South 491 565  Level New Zealand
04:48PM -30.7500 172.2667 165° South 491 565  Level New Zealand
04:50PM -31.0167 172.3667 162° South 491 565  Level New Zealand
04:52PM -31.2833 172.4500 165° South 491 565  Level New Zealand
04:54PM -31.5333 172.5500 161° South 491 565  Level New Zealand
04:56PM -31.8000 172.6333 165° South 491 565  Level New Zealand
04:58PM -32.0667 172.7333 162° South 491 565  Level New Zealand
05:00PM -32.3333 172.8167 165° South 491 565  Level New Zealand
05:02PM -32.5833 172.9167 161° South 491 565  Level New Zealand
05:04PM -32.8500 173.0167 163° South 491 565  Level New Zealand
05:04PM -32.9833 173.0500 168° South 441 507  Level New Zealand
05:05PM -33.1167 173.1000 163° South 509 586  Level New Zealand
05:06PM -33.2667 173.1500 164° South 515 593  Level New Zealand
05:07PM -33.4000 173.2167 157° South 516 594  Level New Zealand
05:08PM -33.5500 173.2667 164° South 518 596  Level New Zealand
05:09PM -33.6833 173.3167 163° South 520 598  Level New Zealand
05:10PM -33.8333 173.3667 165° South 523 602  Level New Zealand
05:11PM -33.9667 173.4333 157° South 523 602  Level New Zealand
05:12PM -34.0833 173.5333 145° Southeast 513 590  Level New Zealand
05:13PM -34.2167 173.6333 148° Southeast 508 585  Level New Zealand
05:14PM -34.3333 173.7333 145° Southeast 510 587  Level New Zealand
05:15PM -34.4500 173.8167 150° Southeast 507 583  Level New Zealand
05:17PM -34.5833 173.9000 153° Southeast 510 587  Level New Zealand
05:18PM -34.7000 174.0000 145° Southeast 511 588  Level New Zealand
05:19PM -34.8167 174.1000 145° Southeast 492 566  Level New Zealand
05:20PM -34.9333 174.1833 150° Southeast 493 567  Level New Zealand
05:21PM -35.0500 174.2667 150° Southeast 484 557  Level New Zealand
05:22PM -35.1667 174.3667 145° Southeast 469 540  Level New Zealand
05:23PM -35.2833 174.4500 150° Southeast 451 519  Level New Zealand
05:24PM -35.3833 174.5333 146° Southeast 444 511  Level New Zealand
05:25PM -35.4833 174.6167 146° Southeast 433 498  Level New Zealand
05:26PM -35.6000 174.6833 155° Southeast 426 490  Level New Zealand
05:27PM -35.7000 174.7667 146° Southeast 418 481  Level New Zealand
05:28PM -35.7833 174.8500 141° Southeast 402 463  Level New Zealand
05:29PM -35.8833 174.9167 152° Southeast 390 449  Level New Zealand
05:30PM -35.9667 174.9833 147° Southeast 370 426  Level New Zealand
05:31PM -36.0667 175.0667 146° Southeast 363 418  Level New Zealand
05:32PM -36.1500 175.1333 147° Southeast 357 411  Level New Zealand
05:33PM -36.2333 175.2000 147° Southeast 346 398  Level New Zealand
05:34PM -36.3000 175.2500 149° Southeast 334 384  Level New Zealand
05:35PM -36.3833 175.3000 154° Southeast 318 366  Level New Zealand
05:36PM -36.4667 175.2500 206° Southwest 289 333  Level New Zealand
05:37PM -36.5500 175.2167 198° South 282 325  Level New Zealand
05:38PM -36.6167 175.1833 202° Southwest 266 306  Level New Zealand
05:39PM -36.6833 175.1500 202° Southwest 257 296  Level New Zealand
05:40PM -36.7500 175.1333 191° South 244 281  Level New Zealand
05:41PM -36.8167 175.1333 180° South 244 281  Level New Zealand
05:42PM -36.8833 175.1333 180° South 227 261  Level New Zealand
05:43PM -36.9333 175.1333 180° South 195 224  Level New Zealand
05:44PM -36.9333 175.0667 270° West 190 219  Level New Zealand
05:45PM -36.9500 175.0000 253° West 180 207  Level New Zealand
05:46PM -36.9667 174.9500 247° West 170 196  Level New Zealand
05:47PM -36.9833 174.9000 247° West 146 168  Level New Zealand
05:48PM -37.0000 174.8500 247° West 140 161  Level New Zealand
05:49PM -37.0000 174.8000 270° West 129 148  Level New Zealand